createdAt,value
2018-04-30T00:00:48.691Z,0.00
2018-04-30T00:01:48.599Z,0.00
2018-04-30T00:02:48.510Z,0.00
2018-04-30T00:03:48.406Z,0.00
2018-04-30T00:04:48.314Z,0.00
2018-04-30T00:05:48.210Z,0.00
2018-04-30T00:06:48.121Z,0.00
2018-04-30T00:07:48.017Z,0.00
2018-04-30T00:08:47.926Z,0.00
2018-04-30T00:09:47.836Z,0.00
2018-04-30T00:10:47.734Z,0.00
2018-04-30T00:11:47.641Z,0.00
2018-04-30T00:12:47.551Z,0.00
2018-04-30T00:13:47.447Z,0.00
2018-04-30T00:14:47.356Z,0.00
2018-04-30T00:15:47.267Z,0.00
2018-04-30T00:16:47.163Z,0.00
2018-04-30T00:17:47.071Z,0.00
2018-04-30T00:18:46.970Z,0.00
2018-04-30T00:19:46.879Z,0.00
2018-04-30T00:20:46.786Z,0.00
2018-04-30T00:21:46.688Z,0.00
2018-04-30T00:22:46.593Z,0.00
2018-04-30T00:23:46.501Z,0.00
2018-04-30T00:24:46.399Z,0.00
2018-04-30T00:25:46.308Z,0.00
2018-04-30T00:26:46.217Z,0.00
2018-04-30T00:27:46.113Z,0.00
2018-04-30T00:28:46.025Z,0.00
2018-04-30T00:29:45.931Z,0.00
2018-04-30T00:30:45.828Z,0.00
2018-04-30T00:31:45.738Z,0.00
2018-04-30T00:32:45.646Z,0.00
2018-04-30T00:33:45.543Z,0.00
2018-04-30T00:34:45.453Z,0.00
2018-04-30T00:35:45.363Z,0.00
2018-04-30T00:36:45.258Z,0.00
2018-04-30T00:37:45.173Z,0.00
2018-04-30T00:38:45.065Z,0.00
2018-04-30T00:39:44.973Z,0.00
2018-04-30T00:40:44.884Z,0.00
2018-04-30T00:41:44.780Z,0.00
2018-04-30T00:42:44.688Z,0.00
2018-04-30T00:43:44.848Z,0.00
2018-04-30T00:44:44.495Z,0.00
2018-04-30T00:45:44.403Z,0.00
2018-04-30T00:46:44.302Z,0.00
2018-04-30T00:47:44.211Z,0.00
2018-04-30T00:48:44.118Z,0.00
2018-04-30T00:49:44.017Z,0.00
2018-04-30T00:50:43.926Z,0.00
2018-04-30T00:51:43.837Z,0.00
2018-04-30T00:52:43.730Z,0.00
2018-04-30T00:53:43.640Z,0.00
2018-04-30T00:54:43.548Z,0.00
2018-04-30T00:55:43.445Z,0.00
2018-04-30T00:56:43.355Z,0.00
2018-04-30T00:57:43.263Z,0.00
2018-04-30T00:58:43.160Z,0.00
2018-04-30T00:59:43.070Z,0.00
2018-04-30T01:00:42.968Z,0.00
2018-04-30T01:01:42.875Z,0.00
2018-04-30T01:02:42.786Z,0.00
2018-04-30T01:03:42.682Z,0.00
2018-04-30T01:04:42.591Z,0.00
2018-04-30T01:05:42.499Z,0.00
2018-04-30T01:06:42.397Z,0.00
2018-04-30T01:07:42.317Z,0.00
2018-04-30T01:08:42.215Z,0.00
2018-04-30T01:09:42.112Z,0.00
2018-04-30T01:10:42.021Z,0.00
2018-04-30T01:11:41.944Z,0.00
2018-04-30T01:12:41.827Z,0.00
2018-04-30T01:13:41.735Z,0.00
2018-04-30T01:14:41.632Z,0.00
2018-04-30T01:15:41.543Z,0.00
2018-04-30T01:16:41.451Z,0.00
2018-04-30T01:17:41.347Z,0.00
2018-04-30T01:18:41.257Z,0.00
2018-04-30T01:19:41.154Z,0.00
2018-04-30T01:20:41.062Z,0.00
2018-04-30T01:21:40.972Z,0.00
2018-04-30T01:22:40.873Z,0.00
2018-04-30T01:23:41.077Z,0.00
2018-04-30T01:24:40.687Z,0.00
2018-04-30T01:25:40.584Z,0.00
2018-04-30T01:26:40.499Z,0.00
2018-04-30T01:27:40.391Z,0.00
2018-04-30T01:28:40.298Z,0.00
2018-04-30T01:29:40.207Z,0.00
2018-04-30T01:30:40.107Z,0.00
2018-04-30T01:31:40.014Z,0.00
2018-04-30T01:32:39.922Z,0.00
2018-04-30T01:33:39.819Z,0.00
2018-04-30T01:34:39.729Z,0.00
2018-04-30T01:35:39.639Z,0.00
2018-04-30T01:36:39.535Z,0.00
2018-04-30T01:37:39.445Z,0.00
2018-04-30T01:38:39.342Z,0.00
2018-04-30T01:39:39.249Z,0.00
2018-04-30T01:40:39.160Z,0.00
2018-04-30T01:41:39.057Z,0.00
2018-04-30T01:42:38.967Z,0.00
2018-04-30T01:43:38.861Z,0.00
2018-04-30T01:44:38.771Z,0.00
2018-04-30T01:45:38.680Z,0.00
2018-04-30T01:46:38.577Z,0.00
2018-04-30T01:47:38.486Z,0.00
2018-04-30T01:48:38.407Z,0.00
2018-04-30T01:49:38.291Z,0.00
2018-04-30T01:50:38.201Z,0.00
2018-04-30T01:51:38.102Z,0.00
2018-04-30T01:52:38.006Z,0.00
2018-04-30T01:53:38.216Z,0.00
2018-04-30T01:54:37.813Z,0.00
2018-04-30T01:55:37.721Z,0.00
2018-04-30T01:56:37.619Z,0.00
2018-04-30T01:57:37.527Z,0.00
2018-04-30T01:58:37.436Z,0.00
2018-04-30T01:59:37.334Z,0.00
2018-04-30T02:00:37.243Z,0.00
2018-04-30T02:01:37.151Z,0.00
2018-04-30T02:02:37.048Z,0.00
2018-04-30T02:03:36.957Z,0.00
2018-04-30T02:04:36.867Z,0.00
2018-04-30T02:05:36.765Z,0.00
2018-04-30T02:06:36.660Z,0.00
2018-04-30T02:07:36.570Z,0.00
2018-04-30T02:08:36.478Z,0.00
2018-04-30T02:09:36.375Z,0.00
2018-04-30T02:10:36.285Z,0.00
2018-04-30T02:11:36.182Z,0.00
2018-04-30T02:12:36.093Z,0.00
2018-04-30T02:13:36.001Z,0.00
2018-04-30T02:14:35.896Z,0.00
2018-04-30T02:15:35.805Z,0.00
2018-04-30T02:16:35.703Z,0.00
2018-04-30T02:17:35.612Z,0.00
2018-04-30T02:18:35.769Z,0.00
2018-04-30T02:19:35.417Z,0.00
2018-04-30T02:20:35.326Z,0.00
2018-04-30T02:21:35.223Z,0.00
2018-04-30T02:22:35.132Z,0.00
2018-04-30T02:23:35.043Z,0.00
2018-04-30T02:24:34.938Z,0.00
2018-04-30T02:25:34.846Z,0.00
2018-04-30T02:26:34.744Z,0.00
2018-04-30T02:27:34.656Z,0.00
2018-04-30T02:28:34.561Z,0.00
2018-04-30T02:29:34.459Z,0.00
2018-04-30T02:30:34.368Z,0.00
2018-04-30T02:31:34.283Z,0.00
2018-04-30T02:32:34.174Z,0.00
2018-04-30T02:33:34.082Z,0.00
2018-04-30T02:34:33.981Z,0.00
2018-04-30T02:35:33.889Z,0.00
2018-04-30T02:36:33.785Z,0.00
2018-04-30T02:37:33.695Z,0.00
2018-04-30T02:38:33.593Z,0.00
2018-04-30T02:39:33.501Z,0.00
2018-04-30T02:40:33.403Z,0.00
2018-04-30T02:41:33.307Z,0.00
2018-04-30T02:42:33.216Z,0.00
2018-04-30T02:43:33.112Z,0.00
2018-04-30T02:44:33.023Z,0.00
2018-04-30T02:45:32.926Z,0.00
2018-04-30T02:46:32.827Z,0.00
2018-04-30T02:47:32.730Z,0.00
2018-04-30T02:48:32.934Z,0.00
2018-04-30T02:49:32.543Z,0.00
2018-04-30T02:50:32.439Z,0.00
2018-04-30T02:51:32.349Z,0.00
2018-04-30T02:52:32.267Z,0.00
2018-04-30T02:53:32.175Z,0.00
2018-04-30T02:54:32.086Z,0.00
2018-04-30T02:55:31.982Z,0.00
2018-04-30T02:56:31.891Z,0.00
2018-04-30T02:57:31.799Z,0.00
2018-04-30T02:58:31.996Z,0.00
2018-04-30T02:59:31.593Z,0.00
2018-04-30T03:00:31.494Z,0.00
2018-04-30T03:01:31.403Z,4.00
2018-04-30T03:02:31.301Z,4.00
2018-04-30T03:03:31.210Z,0.00
2018-04-30T03:04:31.106Z,0.00
2018-04-30T03:05:31.015Z,4.00
2018-04-30T03:06:30.911Z,4.00
2018-04-30T03:07:30.821Z,4.00
2018-04-30T03:08:30.718Z,8.00
2018-04-30T03:09:30.617Z,4.00
2018-04-30T03:10:30.536Z,4.00
2018-04-30T03:11:30.425Z,8.00
2018-04-30T03:12:30.329Z,8.00
2018-04-30T03:13:30.231Z,8.00
2018-04-30T03:14:30.136Z,12.00
2018-04-30T03:15:30.031Z,12.00
2018-04-30T03:16:29.941Z,16.00
2018-04-30T03:17:29.849Z,20.00
2018-04-30T03:18:30.047Z,20.00
2018-04-30T03:19:29.657Z,24.00
2018-04-30T03:20:29.625Z,28.00
2018-04-30T03:21:29.463Z,32.00
2018-04-30T03:22:29.358Z,36.00
2018-04-30T03:23:29.267Z,40.00
2018-04-30T03:24:29.165Z,48.00
2018-04-30T03:25:29.073Z,52.00
2018-04-30T03:26:28.970Z,60.00
2018-04-30T03:27:28.879Z,68.00
2018-04-30T03:28:28.787Z,72.00
2018-04-30T03:29:28.684Z,84.00
2018-04-30T03:30:28.597Z,92.00
2018-04-30T03:31:28.491Z,104.00
2018-04-30T03:32:28.487Z,112.00
2018-04-30T03:33:28.296Z,124.00
2018-04-30T03:34:28.206Z,136.00
2018-04-30T03:35:28.102Z,152.00
2018-04-30T03:36:28.027Z,164.00
2018-04-30T03:37:27.921Z,180.00
2018-04-30T03:38:27.818Z,196.00
2018-04-30T03:39:27.726Z,212.00
2018-04-30T03:40:27.623Z,232.00
2018-04-30T03:41:27.532Z,248.00
2018-04-30T03:42:27.429Z,272.00
2018-04-30T03:43:27.338Z,292.00
2018-04-30T03:44:27.234Z,312.00
2018-04-30T03:45:27.147Z,336.00
2018-04-30T03:46:27.041Z,356.00
2018-04-30T03:47:26.949Z,384.00
2018-04-30T03:48:26.847Z,408.00
2018-04-30T03:49:26.755Z,436.00
2018-04-30T03:50:26.656Z,460.00
2018-04-30T03:51:26.561Z,488.00
2018-04-30T03:52:26.459Z,520.00
2018-04-30T03:53:26.370Z,544.00
2018-04-30T03:54:26.276Z,576.00
2018-04-30T03:55:26.175Z,604.00
2018-04-30T03:56:26.083Z,632.00
2018-04-30T03:57:25.980Z,664.00
2018-04-30T03:58:25.922Z,688.00
2018-04-30T03:59:25.784Z,712.00
2018-04-30T04:00:25.695Z,740.00
2018-04-30T04:01:25.591Z,760.00
2018-04-30T04:02:25.500Z,792.00
2018-04-30T04:03:25.410Z,820.00
2018-04-30T04:04:25.306Z,856.00
2018-04-30T04:05:25.206Z,896.00
2018-04-30T04:06:25.111Z,936.00
2018-04-30T04:07:25.009Z,980.00
2018-04-30T04:08:24.918Z,1024.00
2018-04-30T04:09:24.816Z,1060.00
2018-04-30T04:10:24.723Z,1108.00
2018-04-30T04:11:24.625Z,1152.00
2018-04-30T04:12:24.534Z,1196.00
2018-04-30T04:13:24.438Z,1240.00
2018-04-30T04:14:24.337Z,1288.00
2018-04-30T04:15:24.244Z,1348.00
2018-04-30T04:16:24.142Z,1408.00
2018-04-30T04:17:24.051Z,1500.00
2018-04-30T04:18:24.247Z,1584.00
2018-04-30T04:19:23.859Z,1636.00
2018-04-30T04:20:23.754Z,1700.00
2018-04-30T04:21:23.662Z,1796.00
2018-04-30T04:22:23.558Z,1852.00
2018-04-30T04:23:23.468Z,1932.00
2018-04-30T04:24:23.364Z,1996.00
2018-04-30T04:25:23.274Z,2060.00
2018-04-30T04:26:23.171Z,2128.00
2018-04-30T04:27:23.080Z,2188.00
2018-04-30T04:28:22.994Z,2256.00
2018-04-30T04:29:22.903Z,2324.00
2018-04-30T04:30:22.795Z,2396.00
2018-04-30T04:31:22.696Z,2452.00
2018-04-30T04:32:22.600Z,2524.00
2018-04-30T04:33:22.497Z,2596.00
2018-04-30T04:34:22.407Z,2664.00
2018-04-30T04:35:22.320Z,2732.00
2018-04-30T04:36:22.212Z,2808.00
2018-04-30T04:37:22.123Z,2876.00
2018-04-30T04:38:22.021Z,2952.00
2018-04-30T04:39:21.928Z,3024.00
2018-04-30T04:40:21.831Z,3104.00
2018-04-30T04:41:21.734Z,3188.00
2018-04-30T04:42:21.641Z,3284.00
2018-04-30T04:43:21.790Z,3404.00
2018-04-30T04:44:21.452Z,3464.00
2018-04-30T04:45:21.357Z,3472.00
2018-04-30T04:46:21.255Z,3984.00
2018-04-30T04:47:21.166Z,4152.00
2018-04-30T04:48:21.061Z,4364.00
2018-04-30T04:49:20.969Z,4520.00
2018-04-30T04:50:20.879Z,4652.00
2018-04-30T04:51:20.787Z,4760.00
2018-04-30T04:52:20.684Z,4788.00
2018-04-30T04:53:20.596Z,4816.00
2018-04-30T04:54:20.491Z,4912.00
2018-04-30T04:55:20.399Z,5012.00
2018-04-30T04:56:20.311Z,5080.00
2018-04-30T04:57:20.205Z,5108.00
2018-04-30T04:58:20.114Z,5128.00
2018-04-30T04:59:20.025Z,5308.00
2018-04-30T05:00:19.921Z,5736.00
2018-04-30T05:01:19.829Z,6400.00
2018-04-30T05:02:19.753Z,7080.00
2018-04-30T05:03:19.636Z,7712.00
2018-04-30T05:04:19.544Z,8304.00
2018-04-30T05:05:19.454Z,8716.00
2018-04-30T05:06:19.362Z,8856.00
2018-04-30T05:07:19.259Z,8548.00
2018-04-30T05:08:19.170Z,8344.00
2018-04-30T05:09:19.078Z,8216.00
2018-04-30T05:10:18.976Z,8084.00
2018-04-30T05:11:18.887Z,8032.00
2018-04-30T05:12:18.793Z,8040.00
2018-04-30T05:13:18.709Z,8036.00
2018-04-30T05:14:18.614Z,7924.00
2018-04-30T05:15:18.509Z,7692.00
2018-04-30T05:16:18.418Z,7436.00
2018-04-30T05:17:18.327Z,7128.00
2018-04-30T05:18:18.236Z,6812.00
2018-04-30T05:19:18.133Z,6540.00
2018-04-30T05:20:18.041Z,6452.00
2018-04-30T05:21:17.951Z,6484.00
2018-04-30T05:22:17.859Z,6576.00
2018-04-30T05:23:17.769Z,6840.00
2018-04-30T05:24:17.678Z,7232.00
2018-04-30T05:25:17.574Z,7852.00
2018-04-30T05:26:17.484Z,8556.00
2018-04-30T05:27:17.393Z,9276.00
2018-04-30T05:28:17.306Z,9976.00
2018-04-30T05:29:17.211Z,10444.00
2018-04-30T05:30:17.109Z,10788.00
2018-04-30T05:31:17.018Z,11064.00
2018-04-30T05:32:16.926Z,11048.00
2018-04-30T05:33:16.835Z,10968.00
2018-04-30T05:34:16.746Z,10884.00
2018-04-30T05:35:16.654Z,10664.00
2018-04-30T05:36:16.563Z,10600.00
2018-04-30T05:37:16.473Z,12160.00
2018-04-30T05:38:16.370Z,10064.00
2018-04-30T05:39:16.278Z,11508.00
2018-04-30T05:40:16.188Z,9720.00
2018-04-30T05:41:16.099Z,9516.00
2018-04-30T05:42:16.007Z,9164.00
2018-04-30T05:43:15.915Z,8872.00
2018-04-30T05:44:15.825Z,8328.00
2018-04-30T05:45:15.733Z,7992.00
2018-04-30T05:46:15.644Z,7704.00
2018-04-30T05:47:15.553Z,8000.00
2018-04-30T05:48:15.462Z,8212.00
2018-04-30T05:49:15.359Z,8548.00
2018-04-30T05:50:15.267Z,9748.00
2018-04-30T05:51:15.178Z,9536.00
2018-04-30T05:52:15.085Z,10544.00
2018-04-30T05:53:14.999Z,10444.00
2018-04-30T05:54:14.904Z,9628.00
2018-04-30T05:55:14.849Z,7288.00
2018-04-30T05:56:14.723Z,7036.00
2018-04-30T05:57:14.620Z,9720.00
2018-04-30T05:58:14.528Z,10412.00
2018-04-30T05:59:14.437Z,7564.00
2018-04-30T06:00:14.348Z,9884.00
2018-04-30T06:01:14.256Z,6520.00
2018-04-30T06:02:14.166Z,10468.00
2018-04-30T06:03:14.074Z,10320.00
2018-04-30T06:04:13.984Z,10252.00
2018-04-30T06:05:13.892Z,10264.00
2018-04-30T06:06:13.790Z,10316.00
2018-04-30T06:07:13.699Z,10376.00
2018-04-30T06:08:13.609Z,10536.00
2018-04-30T06:09:13.519Z,10756.00
2018-04-30T06:10:13.427Z,11068.00
2018-04-30T06:11:13.336Z,11008.00
2018-04-30T06:12:13.311Z,10912.00
2018-04-30T06:13:13.155Z,10888.00
2018-04-30T06:14:13.063Z,10904.00
2018-04-30T06:15:12.976Z,10964.00
2018-04-30T06:16:12.884Z,11092.00
2018-04-30T06:17:12.791Z,11304.00
2018-04-30T06:18:12.949Z,11456.00
2018-04-30T06:19:12.609Z,11520.00
2018-04-30T06:20:12.518Z,11552.00
2018-04-30T06:21:12.428Z,11560.00
2018-04-30T06:22:12.337Z,11580.00
2018-04-30T06:23:12.246Z,11520.00
2018-04-30T06:24:12.154Z,11472.00
2018-04-30T06:25:12.064Z,11468.00
2018-04-30T06:26:11.973Z,11488.00
2018-04-30T06:27:11.883Z,11464.00
2018-04-30T06:28:11.791Z,11608.00
2018-04-30T06:29:11.713Z,11680.00
2018-04-30T06:30:11.624Z,11736.00
2018-04-30T06:31:11.537Z,11756.00
2018-04-30T06:32:11.441Z,11844.00
2018-04-30T06:33:11.349Z,11888.00
2018-04-30T06:34:11.259Z,11948.00
2018-04-30T06:35:11.168Z,11960.00
2018-04-30T06:36:11.079Z,12020.00
2018-04-30T06:37:10.986Z,12060.00
2018-04-30T06:38:11.196Z,12128.00
2018-04-30T06:39:10.805Z,12184.00
2018-04-30T06:40:10.726Z,12256.00
2018-04-30T06:41:10.636Z,12308.00
2018-04-30T06:42:10.544Z,12400.00
2018-04-30T06:43:10.455Z,12352.00
2018-04-30T06:44:10.367Z,12356.00
2018-04-30T06:45:10.273Z,12428.00
2018-04-30T06:46:10.181Z,12424.00
2018-04-30T06:47:10.092Z,12468.00
2018-04-30T06:48:10.014Z,12572.00
2018-04-30T06:49:09.922Z,12668.00
2018-04-30T06:50:09.831Z,12784.00
2018-04-30T06:51:09.739Z,12888.00
2018-04-30T06:52:09.651Z,12936.00
2018-04-30T06:53:09.561Z,13092.00
2018-04-30T06:54:09.468Z,13168.00
2018-04-30T06:55:09.389Z,13220.00
2018-04-30T06:56:09.298Z,13320.00
2018-04-30T06:57:09.208Z,13372.00
2018-04-30T06:58:09.118Z,13492.00
2018-04-30T06:59:09.027Z,13620.00
2018-04-30T07:00:08.948Z,13740.00
2018-04-30T07:01:08.873Z,13884.00
2018-04-30T07:02:08.767Z,14136.00
2018-04-30T07:03:08.676Z,14232.00
2018-04-30T07:04:08.597Z,14388.00
2018-04-30T07:05:08.507Z,14408.00
2018-04-30T07:06:08.415Z,14464.00
2018-04-30T07:07:08.325Z,14448.00
2018-04-30T07:08:08.235Z,13792.00
2018-04-30T07:09:08.169Z,12264.00
2018-04-30T07:10:08.065Z,13180.00
2018-04-30T07:11:07.974Z,13436.00
2018-04-30T07:12:07.895Z,14624.00
2018-04-30T07:13:07.805Z,14324.00
2018-04-30T07:14:07.727Z,14632.00
2018-04-30T07:15:07.624Z,13520.00
2018-04-30T07:16:07.545Z,13356.00
2018-04-30T07:17:07.453Z,14516.00
2018-04-30T07:18:07.374Z,14540.00
2018-04-30T07:19:07.285Z,15484.00
2018-04-30T07:20:07.218Z,15976.00
2018-04-30T07:21:07.130Z,15816.00
2018-04-30T07:22:07.013Z,16128.00
2018-04-30T07:23:06.933Z,16004.00
2018-04-30T07:24:06.843Z,15044.00
2018-04-30T07:25:06.753Z,16336.00
2018-04-30T07:26:06.675Z,17120.00
2018-04-30T07:27:06.584Z,16048.00
2018-04-30T07:28:06.495Z,16292.00
2018-04-30T07:29:06.414Z,17536.00
2018-04-30T07:30:06.324Z,17216.00
2018-04-30T07:31:06.238Z,14520.00
2018-04-30T07:32:06.154Z,11768.00
2018-04-30T07:33:06.161Z,10132.00
2018-04-30T07:34:05.973Z,9728.00
2018-04-30T07:35:05.894Z,9492.00
2018-04-30T07:36:05.804Z,9340.00
2018-04-30T07:37:05.714Z,9268.00
2018-04-30T07:38:05.884Z,9200.00
2018-04-30T07:39:05.549Z,9080.00
2018-04-30T07:40:05.453Z,8892.00
2018-04-30T07:41:05.362Z,8756.00
2018-04-30T07:42:05.284Z,8640.00
2018-04-30T07:43:05.199Z,8532.00
2018-04-30T07:44:05.103Z,8436.00
2018-04-30T07:45:05.011Z,8340.00
2018-04-30T07:46:04.921Z,8292.00
2018-04-30T07:47:04.830Z,8304.00
2018-04-30T07:48:04.796Z,8252.00
2018-04-30T07:49:04.662Z,8196.00
2018-04-30T07:50:04.569Z,8168.00
2018-04-30T07:51:04.480Z,8204.00
2018-04-30T07:52:04.388Z,8284.00
2018-04-30T07:53:04.298Z,8280.00
2018-04-30T07:54:04.206Z,8368.00
2018-04-30T07:55:04.115Z,8368.00
2018-04-30T07:56:04.025Z,8396.00
2018-04-30T07:57:03.946Z,8404.00
2018-04-30T07:58:04.106Z,8372.00
2018-04-30T07:59:03.766Z,8408.00
2018-04-30T08:00:03.675Z,8368.00
2018-04-30T08:01:03.583Z,8408.00
2018-04-30T08:02:03.492Z,8508.00
2018-04-30T08:03:03.422Z,8572.00
2018-04-30T08:04:03.312Z,8696.00
2018-04-30T08:05:03.220Z,8728.00
2018-04-30T08:06:03.130Z,8900.00
2018-04-30T08:07:03.038Z,9008.00
2018-04-30T08:08:02.948Z,8896.00
2018-04-30T08:09:02.860Z,8908.00
2018-04-30T08:10:02.768Z,9052.00
2018-04-30T08:11:02.678Z,9136.00
2018-04-30T08:12:02.637Z,9184.00
2018-04-30T08:13:02.506Z,9088.00
2018-04-30T08:14:02.415Z,8968.00
2018-04-30T08:15:02.326Z,8876.00
2018-04-30T08:16:02.233Z,8764.00
2018-04-30T08:17:02.144Z,8712.00
2018-04-30T08:18:02.051Z,8700.00
2018-04-30T08:19:01.961Z,8608.00
2018-04-30T08:20:01.870Z,8632.00
2018-04-30T08:21:01.780Z,8752.00
2018-04-30T08:22:01.701Z,8812.00
2018-04-30T08:23:01.599Z,8940.00
2018-04-30T08:24:01.519Z,8948.00
2018-04-30T08:25:01.417Z,8940.00
2018-04-30T08:26:01.327Z,8932.00
2018-04-30T08:27:01.246Z,8948.00
2018-04-30T08:28:01.156Z,8948.00
2018-04-30T08:29:01.064Z,8884.00
2018-04-30T08:30:00.974Z,8960.00
2018-04-30T08:31:00.896Z,8936.00
2018-04-30T08:32:00.793Z,8932.00
2018-04-30T08:33:00.702Z,9012.00
2018-04-30T08:34:00.612Z,8948.00
2018-04-30T08:35:00.533Z,8980.00
2018-04-30T08:36:00.430Z,9052.00
2018-04-30T08:37:00.339Z,9132.00
2018-04-30T08:38:00.249Z,9188.00
2018-04-30T08:39:00.158Z,9336.00
2018-04-30T08:40:00.093Z,9444.00
2018-04-30T08:40:59.990Z,9612.00
2018-04-30T08:41:59.897Z,9800.00
2018-04-30T08:42:59.806Z,9848.00
2018-04-30T08:43:59.729Z,9964.00
2018-04-30T08:44:59.698Z,10088.00
2018-04-30T08:45:59.534Z,10208.00
2018-04-30T08:46:59.444Z,10328.00
2018-04-30T08:47:59.355Z,10364.00
2018-04-30T08:48:59.286Z,10548.00
2018-04-30T08:49:59.183Z,10832.00
2018-04-30T08:50:59.092Z,11040.00
2018-04-30T08:51:59.071Z,11248.00
2018-04-30T08:52:58.923Z,11388.00
2018-04-30T08:53:58.820Z,11608.00
2018-04-30T08:54:58.728Z,11632.00
2018-04-30T08:55:58.639Z,11796.00
2018-04-30T08:56:58.560Z,11972.00
2018-04-30T08:57:58.721Z,12776.00
2018-04-30T08:58:58.379Z,15464.00
2018-04-30T08:59:58.288Z,24864.00
2018-04-30T09:00:58.197Z,35616.00
2018-04-30T09:01:58.119Z,40480.00
2018-04-30T09:02:58.016Z,42752.00
2018-04-30T09:03:57.938Z,42624.00
2018-04-30T09:04:57.846Z,40608.00
2018-04-30T09:05:57.756Z,38400.00
2018-04-30T09:06:57.665Z,40544.00
2018-04-30T09:07:57.590Z,41664.00
2018-04-30T09:08:57.496Z,42624.00
2018-04-30T09:09:57.410Z,42528.00
2018-04-30T09:10:57.327Z,42080.00
2018-04-30T09:11:57.238Z,42464.00
2018-04-30T09:12:57.163Z,43104.00
2018-04-30T09:13:57.066Z,43424.00
2018-04-30T09:14:57.002Z,43168.00
2018-04-30T09:15:56.902Z,43872.00
2018-04-30T09:16:56.819Z,44448.00
2018-04-30T09:17:56.729Z,45120.00
2018-04-30T09:18:56.649Z,47008.00
2018-04-30T09:19:56.571Z,48288.00
2018-04-30T09:20:56.480Z,46624.00
2018-04-30T09:21:56.403Z,44768.00
2018-04-30T09:22:56.324Z,44544.00
2018-04-30T09:23:56.254Z,46176.00
2018-04-30T09:24:56.154Z,47872.00
2018-04-30T09:25:56.076Z,48224.00
2018-04-30T09:26:56.000Z,36672.00
2018-04-30T09:27:55.919Z,36832.00
2018-04-30T09:28:55.829Z,47968.00
2018-04-30T09:29:55.751Z,48416.00
2018-04-30T09:30:55.672Z,47776.00
2018-04-30T09:31:55.598Z,46944.00
2018-04-30T09:32:55.517Z,43552.00
2018-04-30T09:33:55.427Z,41408.00
2018-04-30T09:34:55.384Z,39424.00
2018-04-30T09:35:55.268Z,37952.00
2018-04-30T09:36:55.205Z,37088.00
2018-04-30T09:37:55.111Z,37088.00
2018-04-30T09:38:55.033Z,35968.00
2018-04-30T09:39:54.955Z,36576.00
2018-04-30T09:40:54.876Z,36320.00
2018-04-30T09:41:54.798Z,36192.00
2018-04-30T09:42:54.719Z,35584.00
2018-04-30T09:43:54.641Z,35808.00
2018-04-30T09:44:54.551Z,37600.00
2018-04-30T09:45:54.474Z,37120.00
2018-04-30T09:46:54.394Z,37120.00
2018-04-30T09:47:54.316Z,37024.00
2018-04-30T09:48:54.238Z,37056.00
2018-04-30T09:49:54.159Z,36992.00
2018-04-30T09:50:54.085Z,36096.00
2018-04-30T09:51:54.003Z,36704.00
2018-04-30T09:52:53.924Z,36416.00
2018-04-30T09:53:53.847Z,36320.00
2018-04-30T09:54:53.769Z,36608.00
2018-04-30T09:55:53.677Z,37312.00
2018-04-30T09:56:53.599Z,37856.00
2018-04-30T09:57:53.860Z,38112.00
2018-04-30T09:58:53.442Z,38048.00
2018-04-30T09:59:53.363Z,41344.00
2018-04-30T10:00:53.285Z,35232.00
2018-04-30T10:01:53.206Z,41824.00
2018-04-30T10:02:53.128Z,39296.00
2018-04-30T10:03:53.050Z,27392.00
2018-04-30T10:04:52.971Z,26592.00
2018-04-30T10:05:52.894Z,47936.00
2018-04-30T10:06:52.816Z,48096.00
2018-04-30T10:07:52.749Z,50112.00
2018-04-30T10:08:52.647Z,20576.00
2018-04-30T10:09:52.568Z,29568.00
2018-04-30T10:10:52.490Z,28864.00
2018-04-30T10:11:52.412Z,19552.00
2018-04-30T10:12:52.334Z,17344.00
2018-04-30T10:13:52.255Z,14324.00
2018-04-30T10:14:52.177Z,20896.00
2018-04-30T10:15:52.086Z,36000.00
2018-04-30T10:16:52.007Z,14496.00
2018-04-30T10:17:52.197Z,20640.00
2018-04-30T10:18:51.850Z,42112.00
2018-04-30T10:19:51.760Z,19520.00
2018-04-30T10:20:51.685Z,27296.00
2018-04-30T10:21:51.604Z,25376.00
2018-04-30T10:22:51.512Z,36128.00
2018-04-30T10:23:51.466Z,26912.00
2018-04-30T10:24:51.359Z,22848.00
2018-04-30T10:25:51.269Z,17152.00
2018-04-30T10:26:51.187Z,16084.00
2018-04-30T10:27:51.109Z,17664.00
2018-04-30T10:28:51.017Z,18304.00
2018-04-30T10:29:50.939Z,18752.00
2018-04-30T10:30:50.853Z,21312.00
2018-04-30T10:31:50.771Z,21088.00
2018-04-30T10:32:50.679Z,29408.00
2018-04-30T10:33:50.600Z,30112.00
2018-04-30T10:34:50.512Z,26976.00
2018-04-30T10:35:50.432Z,22112.00
2018-04-30T10:36:50.344Z,16504.00
2018-04-30T10:37:50.285Z,11548.00
2018-04-30T10:38:50.172Z,10016.00
2018-04-30T10:39:50.094Z,9872.00
2018-04-30T10:40:50.003Z,11232.00
2018-04-30T10:41:49.924Z,14436.00
2018-04-30T10:42:49.834Z,18080.00
2018-04-30T10:43:49.742Z,31360.00
2018-04-30T10:44:49.665Z,37376.00
2018-04-30T10:45:49.625Z,39200.00
2018-04-30T10:46:49.483Z,37216.00
2018-04-30T10:47:49.408Z,37632.00
2018-04-30T10:48:49.314Z,36800.00
2018-04-30T10:49:49.235Z,62912.00
2018-04-30T10:50:49.144Z,34016.00
2018-04-30T10:51:49.060Z,39040.00
2018-04-30T10:52:48.975Z,27200.00
2018-04-30T10:53:48.888Z,60704.00
2018-04-30T10:54:48.795Z,67168.00
2018-04-30T10:55:48.716Z,54784.00
2018-04-30T10:56:48.624Z,45312.00
2018-04-30T10:57:48.785Z,45152.00
2018-04-30T10:58:48.456Z,44352.00
2018-04-30T10:59:48.365Z,59904.00
2018-04-30T11:00:48.286Z,37504.00
2018-04-30T11:01:48.196Z,27744.00
2018-04-30T11:02:48.105Z,22688.00
2018-04-30T11:03:48.027Z,19616.00
2018-04-30T11:04:47.936Z,19872.00
2018-04-30T11:05:47.857Z,18592.00
2018-04-30T11:06:47.766Z,15504.00
2018-04-30T11:07:47.677Z,12184.00
2018-04-30T11:08:47.598Z,10264.00
2018-04-30T11:09:47.520Z,9156.00
2018-04-30T11:10:47.433Z,10256.00
2018-04-30T11:11:47.342Z,12424.00
2018-04-30T11:12:47.246Z,15316.00
2018-04-30T11:13:47.158Z,16724.00
2018-04-30T11:14:47.081Z,20160.00
2018-04-30T11:15:46.986Z,23424.00
2018-04-30T11:16:46.897Z,23968.00
2018-04-30T11:17:47.068Z,20416.00
2018-04-30T11:18:46.728Z,16120.00
2018-04-30T11:19:46.644Z,15728.00
2018-04-30T11:20:46.558Z,19872.00
2018-04-30T11:21:46.467Z,21536.00
2018-04-30T11:22:46.376Z,23232.00
2018-04-30T11:23:46.285Z,21312.00
2018-04-30T11:24:46.206Z,19264.00
2018-04-30T11:25:46.121Z,16296.00
2018-04-30T11:26:46.025Z,12036.00
2018-04-30T11:27:45.938Z,10840.00
2018-04-30T11:28:45.856Z,13216.00
2018-04-30T11:29:45.765Z,19008.00
2018-04-30T11:30:45.675Z,22848.00
2018-04-30T11:31:45.586Z,20416.00
2018-04-30T11:32:45.505Z,19744.00
2018-04-30T11:33:45.415Z,23520.00
2018-04-30T11:34:45.323Z,24000.00
2018-04-30T11:35:45.234Z,23136.00
2018-04-30T11:36:45.143Z,19328.00
2018-04-30T11:37:45.053Z,18048.00
2018-04-30T11:38:44.974Z,19392.00
2018-04-30T11:39:44.882Z,21376.00
2018-04-30T11:40:44.793Z,20608.00
2018-04-30T11:41:44.700Z,21760.00
2018-04-30T11:42:44.611Z,23136.00
2018-04-30T11:43:44.533Z,22720.00
2018-04-30T11:44:44.441Z,21792.00
2018-04-30T11:45:44.350Z,20640.00
2018-04-30T11:46:44.258Z,20224.00
2018-04-30T11:47:44.171Z,22752.00
2018-04-30T11:48:44.090Z,25408.00
2018-04-30T11:49:43.999Z,25824.00
2018-04-30T11:50:43.909Z,29568.00
2018-04-30T11:51:43.817Z,32064.00
2018-04-30T11:52:43.728Z,29248.00
2018-04-30T11:53:43.713Z,22880.00
2018-04-30T11:54:43.566Z,22240.00
2018-04-30T11:55:43.467Z,25792.00
2018-04-30T11:56:43.375Z,28672.00
2018-04-30T11:57:43.298Z,31360.00
2018-04-30T11:58:43.291Z,25120.00
2018-04-30T11:59:43.116Z,22048.00
2018-04-30T12:00:43.026Z,19360.00
2018-04-30T12:01:42.935Z,17152.00
2018-04-30T12:02:42.855Z,16080.00
2018-04-30T12:03:42.767Z,15028.00
2018-04-30T12:04:42.675Z,13708.00
2018-04-30T12:05:42.584Z,12432.00
2018-04-30T12:06:42.506Z,11776.00
2018-04-30T12:07:42.419Z,11536.00
2018-04-30T12:08:42.324Z,11556.00
2018-04-30T12:09:42.233Z,11648.00
2018-04-30T12:10:42.156Z,11548.00
2018-04-30T12:11:42.064Z,11280.00
2018-04-30T12:12:41.973Z,10592.00
2018-04-30T12:13:41.882Z,9536.00
2018-04-30T12:14:41.793Z,8436.00
2018-04-30T12:15:41.726Z,7392.00